sensor_id;sensor_type;location;lat;lon;timestamp;temperature;humidity
68701;DHT22;55682;51.114;5.882;2023-11-19T00:00:26;13.74;92.31
68701;DHT22;55682;51.114;5.882;2023-11-19T00:02:51;13.79;92.31
68701;DHT22;55682;51.114;5.882;2023-11-19T00:05:17;13.84;92.12
68701;DHT22;55682;51.114;5.882;2023-11-19T00:07:43;13.77;92.60
68701;DHT22;55682;51.114;5.882;2023-11-19T00:10:10;13.68;92.58
68701;DHT22;55682;51.114;5.882;2023-11-19T00:12:44;13.81;92.26
68701;DHT22;55682;51.114;5.882;2023-11-19T00:15:10;13.75;92.50
68701;DHT22;55682;51.114;5.882;2023-11-19T00:17:41;13.77;92.46
68701;DHT22;55682;51.114;5.882;2023-11-19T00:20:20;13.75;92.85
68701;DHT22;55682;51.114;5.882;2023-11-19T00:22:47;13.78;92.51
68701;DHT22;55682;51.114;5.882;2023-11-19T00:25:20;13.78;92.75
68701;DHT22;55682;51.114;5.882;2023-11-19T00:27:47;13.86;92.32
68701;DHT22;55682;51.114;5.882;2023-11-19T00:30:13;13.79;92.43
68701;DHT22;55682;51.114;5.882;2023-11-19T00:32:39;13.89;92.64
68701;DHT22;55682;51.114;5.882;2023-11-19T00:35:06;13.94;92.23
68701;DHT22;55682;51.114;5.882;2023-11-19T00:37:32;13.92;92.35
68701;DHT22;55682;51.114;5.882;2023-11-19T00:39:58;13.95;92.36
68701;DHT22;55682;51.114;5.882;2023-11-19T00:42:24;13.88;92.74
68701;DHT22;55682;51.114;5.882;2023-11-19T00:44:50;13.95;92.50
68701;DHT22;55682;51.114;5.882;2023-11-19T00:47:17;13.94;92.85
68701;DHT22;55682;51.114;5.882;2023-11-19T00:49:46;13.99;92.55
68701;DHT22;55682;51.114;5.882;2023-11-19T00:52:14;14.06;92.24
68701;DHT22;55682;51.114;5.882;2023-11-19T00:54:40;14.06;92.28
68701;DHT22;55682;51.114;5.882;2023-11-19T00:57:05;14.08;92.52
68701;DHT22;55682;51.114;5.882;2023-11-19T00:59:31;14.12;91.85
68701;DHT22;55682;51.114;5.882;2023-11-19T01:01:58;14.10;92.00
68701;DHT22;55682;51.114;5.882;2023-11-19T01:04:24;14.09;92.08
68701;DHT22;55682;51.114;5.882;2023-11-19T01:06:50;14.04;92.65
68701;DHT22;55682;51.114;5.882;2023-11-19T01:09:15;14.11;92.18
68701;DHT22;55682;51.114;5.882;2023-11-19T01:11:41;14.17;91.79
68701;DHT22;55682;51.114;5.882;2023-11-19T01:14:06;14.06;92.46
68701;DHT22;55682;51.114;5.882;2023-11-19T01:16:32;14.10;92.43
68701;DHT22;55682;51.114;5.882;2023-11-19T01:18:58;14.19;91.63
68701;DHT22;55682;51.114;5.882;2023-11-19T01:21:23;14.14;91.83
68701;DHT22;55682;51.114;5.882;2023-11-19T01:23:49;14.28;91.09
68701;DHT22;55682;51.114;5.882;2023-11-19T01:26:15;14.23;91.89
68701;DHT22;55682;51.114;5.882;2023-11-19T01:28:40;14.24;91.56
68701;DHT22;55682;51.114;5.882;2023-11-19T01:31:11;14.34;91.31
68701;DHT22;55682;51.114;5.882;2023-11-19T01:33:38;14.34;91.40
68701;DHT22;55682;51.114;5.882;2023-11-19T01:36:04;14.44;91.03
68701;DHT22;55682;51.114;5.882;2023-11-19T01:38:30;14.49;91.07
68701;DHT22;55682;51.114;5.882;2023-11-19T01:40:57;14.43;91.07
68701;DHT22;55682;51.114;5.882;2023-11-19T01:43:34;14.53;90.86
68701;DHT22;55682;51.114;5.882;2023-11-19T01:46:01;14.42;90.82
68701;DHT22;55682;51.114;5.882;2023-11-19T01:48:29;14.58;90.29
68701;DHT22;55682;51.114;5.882;2023-11-19T01:50:57;14.42;91.18
68701;DHT22;55682;51.114;5.882;2023-11-19T01:53:23;14.45;90.76
68701;DHT22;55682;51.114;5.882;2023-11-19T01:55:50;14.40;90.82
68701;DHT22;55682;51.114;5.882;2023-11-19T01:58:16;14.40;90.89
68701;DHT22;55682;51.114;5.882;2023-11-19T02:00:44;14.39;90.98
68701;DHT22;55682;51.114;5.882;2023-11-19T02:03:10;14.28;91.17
68701;DHT22;55682;51.114;5.882;2023-11-19T02:05:38;14.28;91.01
68701;DHT22;55682;51.114;5.882;2023-11-19T02:08:04;14.32;91.40
68701;DHT22;55682;51.114;5.882;2023-11-19T02:10:30;14.40;91.00
68701;DHT22;55682;51.114;5.882;2023-11-19T02:12:58;14.41;90.68
68701;DHT22;55682;51.114;5.882;2023-11-19T02:15:24;14.48;90.41
68701;DHT22;55682;51.114;5.882;2023-11-19T02:17:51;14.43;90.57
68701;DHT22;55682;51.114;5.882;2023-11-19T02:20:17;14.40;90.25
68701;DHT22;55682;51.114;5.882;2023-11-19T02:22:46;14.36;90.16
68701;DHT22;55682;51.114;5.882;2023-11-19T02:25:21;14.37;90.44
68701;DHT22;55682;51.114;5.882;2023-11-19T02:27:53;14.34;90.53
68701;DHT22;55682;51.114;5.882;2023-11-19T02:30:23;14.27;90.66
68701;DHT22;55682;51.114;5.882;2023-11-19T02:33:04;14.32;90.45
68701;DHT22;55682;51.114;5.882;2023-11-19T02:35:32;14.42;90.07
68701;DHT22;55682;51.114;5.882;2023-11-19T02:37:58;14.38;89.86
68701;DHT22;55682;51.114;5.882;2023-11-19T02:40:29;14.37;90.08
68701;DHT22;55682;51.114;5.882;2023-11-19T02:42:55;14.42;89.74
68701;DHT22;55682;51.114;5.882;2023-11-19T02:45:25;14.34;89.41
68701;DHT22;55682;51.114;5.882;2023-11-19T02:47:51;14.29;89.88
68701;DHT22;55682;51.114;5.882;2023-11-19T02:50:19;14.24;89.91
68701;DHT22;55682;51.114;5.882;2023-11-19T02:52:52;14.24;89.83
68701;DHT22;55682;51.114;5.882;2023-11-19T02:55:18;14.26;89.67
68701;DHT22;55682;51.114;5.882;2023-11-19T02:57:45;14.28;88.83
68701;DHT22;55682;51.114;5.882;2023-11-19T03:00:16;14.23;88.80
68701;DHT22;55682;51.114;5.882;2023-11-19T03:02:43;14.17;88.75
68701;DHT22;55682;51.114;5.882;2023-11-19T03:05:14;14.14;88.31
68701;DHT22;55682;51.114;5.882;2023-11-19T03:07:43;14.06;88.27
68701;DHT22;55682;51.114;5.882;2023-11-19T03:10:10;14.05;88.28
68701;DHT22;55682;51.114;5.882;2023-11-19T03:12:40;14.01;88.12
68701;DHT22;55682;51.114;5.882;2023-11-19T03:15:07;14.04;87.77
68701;DHT22;55682;51.114;5.882;2023-11-19T03:17:36;14.05;87.89
68701;DHT22;55682;51.114;5.882;2023-11-19T03:20:09;14.05;87.44
68701;DHT22;55682;51.114;5.882;2023-11-19T03:22:39;14.12;86.69
68701;DHT22;55682;51.114;5.882;2023-11-19T03:25:07;14.07;86.82
68701;DHT22;55682;51.114;5.882;2023-11-19T03:27:35;14.05;86.92
68701;DHT22;55682;51.114;5.882;2023-11-19T03:30:02;14.04;86.75
68701;DHT22;55682;51.114;5.882;2023-11-19T03:32:33;14.09;86.18
68701;DHT22;55682;51.114;5.882;2023-11-19T03:35:04;13.91;87.03
68701;DHT22;55682;51.114;5.882;2023-11-19T03:37:33;13.88;87.45
68701;DHT22;55682;51.114;5.882;2023-11-19T03:39:59;13.81;87.78
68701;DHT22;55682;51.114;5.882;2023-11-19T03:42:26;13.83;88.21
68701;DHT22;55682;51.114;5.882;2023-11-19T03:44:53;13.77;88.52
68701;DHT22;55682;51.114;5.882;2023-11-19T03:47:19;13.71;88.76
68701;DHT22;55682;51.114;5.882;2023-11-19T03:49:50;13.56;89.33
68701;DHT22;55682;51.114;5.882;2023-11-19T03:52:17;13.65;89.18
68701;DHT22;55682;51.114;5.882;2023-11-19T03:54:43;13.56;89.81
68701;DHT22;55682;51.114;5.882;2023-11-19T03:57:09;13.54;89.81
68701;DHT22;55682;51.114;5.882;2023-11-19T03:59:36;13.51;90.00
68701;DHT22;55682;51.114;5.882;2023-11-19T04:02:02;13.46;90.35
68701;DHT22;55682;51.114;5.882;2023-11-19T04:04:28;13.55;89.86
68701;DHT22;55682;51.114;5.882;2023-11-19T04:06:57;13.67;89.83
68701;DHT22;55682;51.114;5.882;2023-11-19T04:09:23;13.73;89.62
68701;DHT22;55682;51.114;5.882;2023-11-19T04:11:49;13.77;89.50
68701;DHT22;55682;51.114;5.882;2023-11-19T04:14:14;13.84;88.46
68701;DHT22;55682;51.114;5.882;2023-11-19T04:16:40;13.78;88.18
68701;DHT22;55682;51.114;5.882;2023-11-19T04:19:06;13.67;88.15
68701;DHT22;55682;51.114;5.882;2023-11-19T04:21:32;13.60;87.90
68701;DHT22;55682;51.114;5.882;2023-11-19T04:23:58;13.61;88.02
68701;DHT22;55682;51.114;5.882;2023-11-19T04:26:24;13.56;88.17
68701;DHT22;55682;51.114;5.882;2023-11-19T04:28:49;13.54;87.73
68701;DHT22;55682;51.114;5.882;2023-11-19T04:31:16;13.67;86.98
68701;DHT22;55682;51.114;5.882;2023-11-19T04:33:42;13.64;86.80
68701;DHT22;55682;51.114;5.882;2023-11-19T04:36:12;13.56;87.44
68701;DHT22;55682;51.114;5.882;2023-11-19T04:38:39;13.61;87.28
68701;DHT22;55682;51.114;5.882;2023-11-19T04:41:05;13.70;87.12
68701;DHT22;55682;51.114;5.882;2023-11-19T04:43:34;13.75;86.86
68701;DHT22;55682;51.114;5.882;2023-11-19T04:46:00;13.67;87.20
68701;DHT22;55682;51.114;5.882;2023-11-19T04:48:28;13.84;86.01
68701;DHT22;55682;51.114;5.882;2023-11-19T04:50:54;13.68;86.23
68701;DHT22;55682;51.114;5.882;2023-11-19T04:53:20;13.71;86.31
68701;DHT22;55682;51.114;5.882;2023-11-19T04:55:46;13.65;86.17
68701;DHT22;55682;51.114;5.882;2023-11-19T04:58:11;13.66;86.25
68701;DHT22;55682;51.114;5.882;2023-11-19T05:00:37;13.67;85.92
68701;DHT22;55682;51.114;5.882;2023-11-19T05:03:03;13.64;85.75
68701;DHT22;55682;51.114;5.882;2023-11-19T05:05:28;13.64;85.94
68701;DHT22;55682;51.114;5.882;2023-11-19T05:07:54;13.63;85.71
68701;DHT22;55682;51.114;5.882;2023-11-19T05:10:20;13.64;85.51
68701;DHT22;55682;51.114;5.882;2023-11-19T05:12:46;13.66;85.42
68701;DHT22;55682;51.114;5.882;2023-11-19T05:15:12;13.70;85.16
68701;DHT22;55682;51.114;5.882;2023-11-19T05:17:38;13.65;84.84
68701;DHT22;55682;51.114;5.882;2023-11-19T05:20:04;13.62;85.13
68701;DHT22;55682;51.114;5.882;2023-11-19T05:22:30;13.53;85.47
68701;DHT22;55682;51.114;5.882;2023-11-19T05:24:56;13.51;85.25
68701;DHT22;55682;51.114;5.882;2023-11-19T05:27:21;13.46;85.40
68701;DHT22;55682;51.114;5.882;2023-11-19T05:29:49;13.40;85.46
68701;DHT22;55682;51.114;5.882;2023-11-19T05:32:14;13.49;84.89
68701;DHT22;55682;51.114;5.882;2023-11-19T05:34:40;13.45;84.77
68701;DHT22;55682;51.114;5.882;2023-11-19T05:37:06;13.36;84.79
68701;DHT22;55682;51.114;5.882;2023-11-19T05:39:31;13.29;84.88
68701;DHT22;55682;51.114;5.882;2023-11-19T05:41:57;13.34;84.43
68701;DHT22;55682;51.114;5.882;2023-11-19T05:44:22;13.32;83.87
68701;DHT22;55682;51.114;5.882;2023-11-19T05:46:48;13.30;84.10
68701;DHT22;55682;51.114;5.882;2023-11-19T05:49:14;13.30;83.60
68701;DHT22;55682;51.114;5.882;2023-11-19T05:51:39;13.33;83.47
68701;DHT22;55682;51.114;5.882;2023-11-19T05:54:09;13.26;83.78
68701;DHT22;55682;51.114;5.882;2023-11-19T05:56:35;13.20;83.82
68701;DHT22;55682;51.114;5.882;2023-11-19T05:59:01;13.26;83.64
68701;DHT22;55682;51.114;5.882;2023-11-19T06:01:29;13.21;83.64
68701;DHT22;55682;51.114;5.882;2023-11-19T06:03:55;13.17;83.68
68701;DHT22;55682;51.114;5.882;2023-11-19T06:06:20;13.10;83.93
68701;DHT22;55682;51.114;5.882;2023-11-19T06:08:46;13.14;83.23
68701;DHT22;55682;51.114;5.882;2023-11-19T06:11:12;13.07;83.91
68701;DHT22;55682;51.114;5.882;2023-11-19T06:13:43;13.12;83.19
68701;DHT22;55682;51.114;5.882;2023-11-19T06:16:09;13.10;82.71
68701;DHT22;55682;51.114;5.882;2023-11-19T06:18:36;13.09;82.68
68701;DHT22;55682;51.114;5.882;2023-11-19T06:21:02;13.05;82.60
68701;DHT22;55682;51.114;5.882;2023-11-19T06:23:27;12.99;82.75
68701;DHT22;55682;51.114;5.882;2023-11-19T06:25:53;12.99;82.68
68701;DHT22;55682;51.114;5.882;2023-11-19T06:28:18;12.94;82.90
68701;DHT22;55682;51.114;5.882;2023-11-19T06:30:44;12.80;83.41
68701;DHT22;55682;51.114;5.882;2023-11-19T06:33:13;12.94;82.79
68701;DHT22;55682;51.114;5.882;2023-11-19T06:35:38;12.89;83.04
68701;DHT22;55682;51.114;5.882;2023-11-19T06:38:04;12.87;82.86
68701;DHT22;55682;51.114;5.882;2023-11-19T06:40:33;12.85;82.94
68701;DHT22;55682;51.114;5.882;2023-11-19T06:43:00;12.79;82.94
68701;DHT22;55682;51.114;5.882;2023-11-19T06:45:26;12.73;83.11
68701;DHT22;55682;51.114;5.882;2023-11-19T06:47:51;12.70;83.07
68701;DHT22;55682;51.114;5.882;2023-11-19T06:50:17;12.64;82.82
68701;DHT22;55682;51.114;5.882;2023-11-19T06:52:43;12.76;82.87
68701;DHT22;55682;51.114;5.882;2023-11-19T06:55:09;12.73;82.76
68701;DHT22;55682;51.114;5.882;2023-11-19T06:57:34;12.76;82.45
68701;DHT22;55682;51.114;5.882;2023-11-19T07:00:00;12.82;82.27
68701;DHT22;55682;51.114;5.882;2023-11-19T07:02:26;12.81;82.07
68701;DHT22;55682;51.114;5.882;2023-11-19T07:04:51;12.89;81.86
68701;DHT22;55682;51.114;5.882;2023-11-19T07:07:17;12.81;82.13
68701;DHT22;55682;51.114;5.882;2023-11-19T07:09:43;12.79;82.36
68701;DHT22;55682;51.114;5.882;2023-11-19T07:12:09;12.74;82.59
68701;DHT22;55682;51.114;5.882;2023-11-19T07:14:34;12.75;82.40
68701;DHT22;55682;51.114;5.882;2023-11-19T07:17:00;12.72;82.62
68701;DHT22;55682;51.114;5.882;2023-11-19T07:19:26;12.85;82.49
68701;DHT22;55682;51.114;5.882;2023-11-19T07:21:52;12.91;82.23
68701;DHT22;55682;51.114;5.882;2023-11-19T07:24:20;12.85;82.45
68701;DHT22;55682;51.114;5.882;2023-11-19T07:26:47;12.90;82.66
68701;DHT22;55682;51.114;5.882;2023-11-19T07:29:13;12.94;82.60
68701;DHT22;55682;51.114;5.882;2023-11-19T07:31:40;13.11;81.75
68701;DHT22;55682;51.114;5.882;2023-11-19T07:34:06;13.15;81.55
68701;DHT22;55682;51.114;5.882;2023-11-19T07:36:32;13.21;81.72
68701;DHT22;55682;51.114;5.882;2023-11-19T07:38:58;13.24;81.63
68701;DHT22;55682;51.114;5.882;2023-11-19T07:41:24;13.40;81.30
68701;DHT22;55682;51.114;5.882;2023-11-19T07:43:51;13.53;80.72
68701;DHT22;55682;51.114;5.882;2023-11-19T07:46:18;13.58;80.61
68701;DHT22;55682;51.114;5.882;2023-11-19T07:48:46;13.75;80.19
68701;DHT22;55682;51.114;5.882;2023-11-19T07:51:13;13.83;78.82
68701;DHT22;55682;51.114;5.882;2023-11-19T07:53:41;14.07;78.95
68701;DHT22;55682;51.114;5.882;2023-11-19T07:56:07;14.25;78.76
68701;DHT22;55682;51.114;5.882;2023-11-19T07:58:33;14.44;77.98
68701;DHT22;55682;51.114;5.882;2023-11-19T08:01:00;14.63;76.99
68701;DHT22;55682;51.114;5.882;2023-11-19T08:03:25;14.70;76.77
68701;DHT22;55682;51.114;5.882;2023-11-19T08:05:51;14.86;76.11
68701;DHT22;55682;51.114;5.882;2023-11-19T08:08:17;14.86;75.78
68701;DHT22;55682;51.114;5.882;2023-11-19T08:10:43;15.15;74.78
68701;DHT22;55682;51.114;5.882;2023-11-19T08:13:13;15.34;74.13
68701;DHT22;55682;51.114;5.882;2023-11-19T08:15:38;15.56;72.43
68701;DHT22;55682;51.114;5.882;2023-11-19T08:18:04;15.63;72.13
68701;DHT22;55682;51.114;5.882;2023-11-19T08:20:30;15.61;71.88
68701;DHT22;55682;51.114;5.882;2023-11-19T08:22:56;15.81;71.16
68701;DHT22;55682;51.114;5.882;2023-11-19T08:25:21;15.93;71.16
68701;DHT22;55682;51.114;5.882;2023-11-19T08:27:47;16.16;69.30
68701;DHT22;55682;51.114;5.882;2023-11-19T08:30:13;16.10;69.24
68701;DHT22;55682;51.114;5.882;2023-11-19T08:32:38;16.18;69.10
68701;DHT22;55682;51.114;5.882;2023-11-19T08:35:04;16.22;69.79
68701;DHT22;55682;51.114;5.882;2023-11-19T08:37:30;16.35;68.29
68701;DHT22;55682;51.114;5.882;2023-11-19T08:39:56;16.45;69.32
68701;DHT22;55682;51.114;5.882;2023-11-19T08:42:22;16.89;67.88
68701;DHT22;55682;51.114;5.882;2023-11-19T08:44:51;17.02;66.33
68701;DHT22;55682;51.114;5.882;2023-11-19T08:47:19;17.01;66.86
68701;DHT22;55682;51.114;5.882;2023-11-19T08:49:45;17.19;65.22
68701;DHT22;55682;51.114;5.882;2023-11-19T08:52:11;17.14;65.13
68701;DHT22;55682;51.114;5.882;2023-11-19T08:54:37;16.98;66.35
68701;DHT22;55682;51.114;5.882;2023-11-19T08:57:03;16.89;65.53
68701;DHT22;55682;51.114;5.882;2023-11-19T08:59:30;16.69;65.91
68701;DHT22;55682;51.114;5.882;2023-11-19T09:01:55;16.66;66.23
68701;DHT22;55682;51.114;5.882;2023-11-19T09:04:21;16.62;66.39
68701;DHT22;55682;51.114;5.882;2023-11-19T09:06:50;16.57;66.33
68701;DHT22;55682;51.114;5.882;2023-11-19T09:09:16;16.50;66.62
68701;DHT22;55682;51.114;5.882;2023-11-19T09:11:42;16.66;66.66
68701;DHT22;55682;51.114;5.882;2023-11-19T09:14:08;17.07;64.88
68701;DHT22;55682;51.114;5.882;2023-11-19T09:16:33;17.23;63.86
68701;DHT22;55682;51.114;5.882;2023-11-19T09:18:59;17.39;63.90
68701;DHT22;55682;51.114;5.882;2023-11-19T09:21:26;17.39;61.93
68701;DHT22;55682;51.114;5.882;2023-11-19T09:23:51;16.81;63.73
68701;DHT22;55682;51.114;5.882;2023-11-19T09:26:18;16.54;65.16
68701;DHT22;55682;51.114;5.882;2023-11-19T09:28:44;16.39;66.39
68701;DHT22;55682;51.114;5.882;2023-11-19T09:31:16;16.70;66.59
68701;DHT22;55682;51.114;5.882;2023-11-19T09:33:42;17.22;64.47
68701;DHT22;55682;51.114;5.882;2023-11-19T09:36:08;17.09;63.35
68701;DHT22;55682;51.114;5.882;2023-11-19T09:38:34;16.60;64.78
68701;DHT22;55682;51.114;5.882;2023-11-19T09:41:07;16.55;65.59
68701;DHT22;55682;51.114;5.882;2023-11-19T09:43:39;16.52;65.25
68701;DHT22;55682;51.114;5.882;2023-11-19T09:46:06;16.27;65.94
68701;DHT22;55682;51.114;5.882;2023-11-19T09:48:35;16.01;67.04
68701;DHT22;55682;51.114;5.882;2023-11-19T09:51:06;15.97;67.38
68701;DHT22;55682;51.114;5.882;2023-11-19T09:53:33;16.27;68.20
68701;DHT22;55682;51.114;5.882;2023-11-19T09:56:00;16.73;65.46
68701;DHT22;55682;51.114;5.882;2023-11-19T09:58:29;16.98;64.62
68701;DHT22;55682;51.114;5.882;2023-11-19T10:00:55;17.03;63.51
68701;DHT22;55682;51.114;5.882;2023-11-19T10:03:23;16.88;64.34
68701;DHT22;55682;51.114;5.882;2023-11-19T10:05:48;17.18;65.27
68701;DHT22;55682;51.114;5.882;2023-11-19T10:08:14;17.90;63.92
68701;DHT22;55682;51.114;5.882;2023-11-19T10:10:40;18.33;60.68
68701;DHT22;55682;51.114;5.882;2023-11-19T10:13:05;18.35;59.29
68701;DHT22;55682;51.114;5.882;2023-11-19T10:15:37;18.18;59.43
68701;DHT22;55682;51.114;5.882;2023-11-19T10:18:03;17.72;60.45
68701;DHT22;55682;51.114;5.882;2023-11-19T10:20:35;17.21;61.97
68701;DHT22;55682;51.114;5.882;2023-11-19T10:23:02;16.92;62.87
68701;DHT22;55682;51.114;5.882;2023-11-19T10:25:29;16.69;63.81
68701;DHT22;55682;51.114;5.882;2023-11-19T10:27:56;16.67;63.97
68701;DHT22;55682;51.114;5.882;2023-11-19T10:30:23;16.54;64.27
68701;DHT22;55682;51.114;5.882;2023-11-19T10:33:07;16.61;65.50
68701;DHT22;55682;51.114;5.882;2023-11-19T10:35:34;17.09;64.93
68701;DHT22;55682;51.114;5.882;2023-11-19T10:38:01;17.79;62.50
68701;DHT22;55682;51.114;5.882;2023-11-19T10:40:39;17.94;61.05
68701;DHT22;55682;51.114;5.882;2023-11-19T10:43:05;18.22;61.03
68701;DHT22;55682;51.114;5.882;2023-11-19T10:45:33;18.72;59.95
68701;DHT22;55682;51.114;5.882;2023-11-19T10:47:59;18.96;58.11
68701;DHT22;55682;51.114;5.882;2023-11-19T10:50:26;19.13;58.19
68701;DHT22;55682;51.114;5.882;2023-11-19T10:52:57;19.18;57.87
68701;DHT22;55682;51.114;5.882;2023-11-19T10:55:27;18.86;57.66
68701;DHT22;55682;51.114;5.882;2023-11-19T10:57:59;18.39;58.64
68701;DHT22;55682;51.114;5.882;2023-11-19T11:00:26;17.91;60.35
68701;DHT22;55682;51.114;5.882;2023-11-19T11:03:00;17.64;60.62
68701;DHT22;55682;51.114;5.882;2023-11-19T11:05:26;17.32;61.63
68701;DHT22;55682;51.114;5.882;2023-11-19T11:07:55;17.32;63.00
68701;DHT22;55682;51.114;5.882;2023-11-19T11:10:25;17.52;61.51
68701;DHT22;55682;51.114;5.882;2023-11-19T11:12:52;17.65;60.67
68701;DHT22;55682;51.114;5.882;2023-11-19T11:15:27;17.49;60.37
68701;DHT22;55682;51.114;5.882;2023-11-19T11:18:01;17.13;61.15
68701;DHT22;55682;51.114;5.882;2023-11-19T11:20:31;16.96;62.50
68701;DHT22;55682;51.114;5.882;2023-11-19T11:26:09;17.32;62.57
68701;DHT22;55682;51.114;5.882;2023-11-19T11:31:36;17.62;60.62
68701;DHT22;55682;51.114;5.882;2023-11-19T11:39:40;17.33;61.75
68701;DHT22;55682;51.114;5.882;2023-11-19T11:50:14;16.78;64.53
68701;DHT22;55682;51.114;5.882;2023-11-19T11:55:36;16.24;67.12
68701;DHT22;55682;51.114;5.882;2023-11-19T11:58:06;16.03;67.81
68701;DHT22;55682;51.114;5.882;2023-11-19T12:00:39;15.99;68.40
68701;DHT22;55682;51.114;5.882;2023-11-19T12:03:07;15.92;69.13
68701;DHT22;55682;51.114;5.882;2023-11-19T12:05:38;15.89;68.93
68701;DHT22;55682;51.114;5.882;2023-11-19T12:08:07;15.99;69.54
68701;DHT22;55682;51.114;5.882;2023-11-19T12:10:46;16.35;68.78
68701;DHT22;55682;51.114;5.882;2023-11-19T12:13:14;16.63;68.25
68701;DHT22;55682;51.114;5.882;2023-11-19T12:18:27;16.69;67.38
68701;DHT22;55682;51.114;5.882;2023-11-19T12:20:57;16.62;67.33
68701;DHT22;55682;51.114;5.882;2023-11-19T12:23:27;16.65;66.85
68701;DHT22;55682;51.114;5.882;2023-11-19T12:25:54;16.81;66.78
68701;DHT22;55682;51.114;5.882;2023-11-19T12:28:20;16.81;66.18
68701;DHT22;55682;51.114;5.882;2023-11-19T12:30:46;16.93;66.05
68701;DHT22;55682;51.114;5.882;2023-11-19T12:33:14;17.10;64.95
68701;DHT22;55682;51.114;5.882;2023-11-19T12:35:45;17.09;65.11
68701;DHT22;55682;51.114;5.882;2023-11-19T12:38:21;17.04;65.53
68701;DHT22;55682;51.114;5.882;2023-11-19T12:40:57;17.01;65.88
68701;DHT22;55682;51.114;5.882;2023-11-19T12:43:27;17.17;65.83
68701;DHT22;55682;51.114;5.882;2023-11-19T12:45:52;17.19;65.13
68701;DHT22;55682;51.114;5.882;2023-11-19T12:48:18;17.11;65.65
68701;DHT22;55682;51.114;5.882;2023-11-19T12:50:54;17.00;66.19
68701;DHT22;55682;51.114;5.882;2023-11-19T12:53:23;17.00;65.26
68701;DHT22;55682;51.114;5.882;2023-11-19T12:55:49;16.84;66.20
68701;DHT22;55682;51.114;5.882;2023-11-19T12:58:31;16.80;66.04
68701;DHT22;55682;51.114;5.882;2023-11-19T13:01:05;16.78;65.77
68701;DHT22;55682;51.114;5.882;2023-11-19T13:03:33;16.64;66.54
68701;DHT22;55682;51.114;5.882;2023-11-19T13:06:10;16.78;65.61
68701;DHT22;55682;51.114;5.882;2023-11-19T13:08:43;16.55;65.70
68701;DHT22;55682;51.114;5.882;2023-11-19T13:11:13;16.39;66.41
68701;DHT22;55682;51.114;5.882;2023-11-19T13:13:55;16.36;66.49
68701;DHT22;55682;51.114;5.882;2023-11-19T13:16:21;16.35;66.41
68701;DHT22;55682;51.114;5.882;2023-11-19T13:18:47;16.24;66.25
68701;DHT22;55682;51.114;5.882;2023-11-19T13:21:13;16.14;66.76
68701;DHT22;55682;51.114;5.882;2023-11-19T13:23:38;16.11;67.10
68701;DHT22;55682;51.114;5.882;2023-11-19T13:26:04;16.06;67.29
68701;DHT22;55682;51.114;5.882;2023-11-19T13:28:31;15.90;68.64
68701;DHT22;55682;51.114;5.882;2023-11-19T13:30:56;15.88;69.20
68701;DHT22;55682;51.114;5.882;2023-11-19T13:33:22;15.78;69.82
68701;DHT22;55682;51.114;5.882;2023-11-19T13:35:47;15.70;70.10
68701;DHT22;55682;51.114;5.882;2023-11-19T13:38:13;15.59;70.89
68701;DHT22;55682;51.114;5.882;2023-11-19T13:40:38;15.54;70.98
68701;DHT22;55682;51.114;5.882;2023-11-19T13:43:04;15.49;71.23
68701;DHT22;55682;51.114;5.882;2023-11-19T13:45:31;15.45;71.47
68701;DHT22;55682;51.114;5.882;2023-11-19T13:47:56;15.39;71.42
68701;DHT22;55682;51.114;5.882;2023-11-19T13:50:22;15.22;72.09
68701;DHT22;55682;51.114;5.882;2023-11-19T13:52:48;15.23;72.29
68701;DHT22;55682;51.114;5.882;2023-11-19T13:55:14;15.30;72.16
68701;DHT22;55682;51.114;5.882;2023-11-19T13:57:41;15.42;71.45
68701;DHT22;55682;51.114;5.882;2023-11-19T14:00:09;15.53;70.50
68701;DHT22;55682;51.114;5.882;2023-11-19T14:02:44;15.54;70.75
68701;DHT22;55682;51.114;5.882;2023-11-19T14:05:10;15.65;70.32
68701;DHT22;55682;51.114;5.882;2023-11-19T14:07:39;15.59;69.91
68701;DHT22;55682;51.114;5.882;2023-11-19T14:10:06;15.53;69.91
68701;DHT22;55682;51.114;5.882;2023-11-19T14:12:35;15.41;69.82
68701;DHT22;55682;51.114;5.882;2023-11-19T14:15:08;15.34;69.91
68701;DHT22;55682;51.114;5.882;2023-11-19T14:17:39;15.28;70.49
68701;DHT22;55682;51.114;5.882;2023-11-19T14:20:05;15.33;70.28
68701;DHT22;55682;51.114;5.882;2023-11-19T14:22:45;15.31;70.71
68701;DHT22;55682;51.114;5.882;2023-11-19T14:25:15;15.18;72.06
68701;DHT22;55682;51.114;5.882;2023-11-19T14:27:42;15.01;73.28
68701;DHT22;55682;51.114;5.882;2023-11-19T14:30:10;14.85;74.17
68701;DHT22;55682;51.114;5.882;2023-11-19T14:32:37;14.86;74.25
68701;DHT22;55682;51.114;5.882;2023-11-19T14:35:04;14.82;74.60
68701;DHT22;55682;51.114;5.882;2023-11-19T14:37:30;14.69;75.30
68701;DHT22;55682;51.114;5.882;2023-11-19T14:39:59;14.62;75.84
68701;DHT22;55682;51.114;5.882;2023-11-19T14:42:26;14.50;76.62
68701;DHT22;55682;51.114;5.882;2023-11-19T14:44:54;14.48;76.59
68701;DHT22;55682;51.114;5.882;2023-11-19T14:47:21;14.43;76.47
68701;DHT22;55682;51.114;5.882;2023-11-19T14:49:46;14.43;76.31
68701;DHT22;55682;51.114;5.882;2023-11-19T14:52:12;14.34;76.57
68701;DHT22;55682;51.114;5.882;2023-11-19T14:54:38;14.24;76.87
68701;DHT22;55682;51.114;5.882;2023-11-19T14:57:05;14.15;77.42
68701;DHT22;55682;51.114;5.882;2023-11-19T14:59:32;14.26;76.95
68701;DHT22;55682;51.114;5.882;2023-11-19T15:01:58;14.13;77.34
68701;DHT22;55682;51.114;5.882;2023-11-19T15:04:25;14.18;76.82
68701;DHT22;55682;51.114;5.882;2023-11-19T15:06:50;14.35;75.18
68701;DHT22;55682;51.114;5.882;2023-11-19T15:09:16;14.23;75.81
68701;DHT22;55682;51.114;5.882;2023-11-19T15:11:43;14.28;75.18
68701;DHT22;55682;51.114;5.882;2023-11-19T15:14:12;14.27;75.31
68701;DHT22;55682;51.114;5.882;2023-11-19T15:16:40;14.22;74.52
68701;DHT22;55682;51.114;5.882;2023-11-19T15:19:06;14.25;75.30
68701;DHT22;55682;51.114;5.882;2023-11-19T15:21:33;14.42;73.70
68701;DHT22;55682;51.114;5.882;2023-11-19T15:24:00;14.33;74.29
68701;DHT22;55682;51.114;5.882;2023-11-19T15:26:25;14.36;74.14
68701;DHT22;55682;51.114;5.882;2023-11-19T15:28:51;14.42;73.75
68701;DHT22;55682;51.114;5.882;2023-11-19T15:31:22;14.19;74.35
68701;DHT22;55682;51.114;5.882;2023-11-19T15:33:48;14.25;74.08
68701;DHT22;55682;51.114;5.882;2023-11-19T15:36:13;14.37;73.62
68701;DHT22;55682;51.114;5.882;2023-11-19T15:38:40;14.14;74.52
68701;DHT22;55682;51.114;5.882;2023-11-19T15:41:06;14.26;73.99
68701;DHT22;55682;51.114;5.882;2023-11-19T15:43:33;14.32;73.73
68701;DHT22;55682;51.114;5.882;2023-11-19T15:45:59;14.22;74.16
68701;DHT22;55682;51.114;5.882;2023-11-19T15:48:24;14.24;73.83
68701;DHT22;55682;51.114;5.882;2023-11-19T15:50:52;14.20;74.15
68701;DHT22;55682;51.114;5.882;2023-11-19T15:53:18;14.19;74.25
68701;DHT22;55682;51.114;5.882;2023-11-19T15:55:44;14.14;74.51